Grampian Pride — GDDK — position and weather

sailwx.info

Track history (hours):
 
Tides and Currents Weather Stations Pressure Air Temp Water Temp Dewpoint Dewpoint Depression Visibility Wind Speed Wind Dir Waves Ship Positions

Grampian Pride

Last reported at 2015-Jan-25 18:33 UTC. Time now 2015-Jan-26 12:31 UTC.
Position N 57°42' W 001°27'.

Length 42 m; draft 4.8 m.

Type: SAR. MMSI: 232843000.

Date/timePositionNaut miles runAvg speedWind from/ knotsBaromVisibWave heightAir tempDewpointWater temp
2015-Jan-25 18:33N 57°42' W 001°27'10 9.9
2015-Jan-25 17:33N 57°33' W 001°34'9 8.9
2015-Jan-25 16:33N 57°25' W 001°42'11 9.0
2015-Jan-25 15:23N 57°16' W 001°53'10 8.4
2015-Jan-25 14:12N 57°08' W 002°04'1 1.1
2015-Jan-25 13:34N 57°09' W 002°06'0 0.0
2015-Jan-25 12:33N 57°09' W 002°06'0 0.0
2015-Jan-25 11:30N 57°09' W 002°06'0 0.0
2015-Jan-25 10:33N 57°09' W 002°06'0 0.0
2015-Jan-25 09:33N 57°09' W 002°06'0 0.0
2015-Jan-25 08:33N 57°09' W 002°06'0 0.0
2015-Jan-25 07:33N 57°09' W 002°06'0 0.0
2015-Jan-25 06:33N 57°09' W 002°06'0 0.0
2015-Jan-25 05:33N 57°09' W 002°06'0 0.0
2015-Jan-25 04:33N 57°09' W 002°06'0 0.0
2015-Jan-25 03:33N 57°09' W 002°06'0 0.0
2015-Jan-25 02:33N 57°09' W 002°06'0 0.0
2015-Jan-25 01:30N 57°09' W 002°06'0 0.0
2015-Jan-25 00:21N 57°09' W 002°06'0 0.0
2015-Jan-24 23:31N 57°09' W 002°06'0 0.0
2015-Jan-24 22:31N 57°09' W 002°06'0 0.0
2015-Jan-24 21:28N 57°09' W 002°06'0 0.0
2015-Jan-24 20:32N 57°09' W 002°06'0 0.0
2015-Jan-24 19:31N 57°09' W 002°06'0 0.0
2015-Jan-24 18:32N 57°09' W 002°06'0 0.0
2015-Jan-24 17:32N 57°09' W 002°06'0 0.0
2015-Jan-24 16:32N 57°09' W 002°06'0 0.0
2015-Jan-24 15:32N 57°09' W 002°06'0 0.0
2015-Jan-24 14:32N 57°09' W 002°06'0 0.0
2015-Jan-24 13:31N 57°09' W 002°06'0 0.0
2015-Jan-24 12:31N 57°09' W 002°06'0 0.0
2015-Jan-24 11:31N 57°09' W 002°06'0 0.0
2015-Jan-24 10:31N 57°09' W 002°06'0 0.0
2015-Jan-24 09:34N 57°09' W 002°06'0 0.0
2015-Jan-24 08:34N 57°09' W 002°06'0 0.0
2015-Jan-24 07:33N 57°09' W 002°06'13 3.1
2015-Jan-24 03:32N 57°18' W 001°49'6 5.7
2015-Jan-24 02:33N 57°22' W 001°42'7 7.2
2015-Jan-24 01:33N 57°28' W 001°35'8 8.1
2015-Jan-24 00:33N 57°35' W 001°28'8 7.8
2015-Jan-23 23:34N 57°43' W 001°28'10 8.2
2015-Jan-23 22:20N 57°53' W 001°33'  
Track history (hours):
 
Tides and Currents Weather Stations Pressure Air Temp Water Temp Dewpoint Dewpoint Depression Visibility Wind Speed Wind Dir Waves Ship Positions

Grampian Pride

Last reported at 2015-Jan-25 18:33 UTC. Time now 2015-Jan-26 12:31 UTC.
Position N 57°42' W 001°27'.

Length 42 m; draft 4.8 m.

Type: SAR. MMSI: 232843000.

Date/timePositionNaut miles runAvg speedWind from/ knotsBaromVisibWave heightAir tempDewpointWater temp
2015-Jan-25 18:33N 57°42' W 001°27'10 9.9
2015-Jan-25 17:33N 57°33' W 001°34'9 8.9
2015-Jan-25 16:33N 57°25' W 001°42'11 9.0
2015-Jan-25 15:23N 57°16' W 001°53'10 8.4
2015-Jan-25 14:12N 57°08' W 002°04'1 1.1
2015-Jan-25 13:34N 57°09' W 002°06'0 0.0
2015-Jan-25 12:33N 57°09' W 002°06'0 0.0
2015-Jan-25 11:30N 57°09' W 002°06'0 0.0
2015-Jan-25 10:33N 57°09' W 002°06'0 0.0
2015-Jan-25 09:33N 57°09' W 002°06'0 0.0
2015-Jan-25 08:33N 57°09' W 002°06'0 0.0
2015-Jan-25 07:33N 57°09' W 002°06'0 0.0
2015-Jan-25 06:33N 57°09' W 002°06'0 0.0
2015-Jan-25 05:33N 57°09' W 002°06'0 0.0
2015-Jan-25 04:33N 57°09' W 002°06'0 0.0
2015-Jan-25 03:33N 57°09' W 002°06'0 0.0
2015-Jan-25 02:33N 57°09' W 002°06'0 0.0
2015-Jan-25 01:30N 57°09' W 002°06'0 0.0
2015-Jan-25 00:21N 57°09' W 002°06'0 0.0
2015-Jan-24 23:31N 57°09' W 002°06'0 0.0
2015-Jan-24 22:31N 57°09' W 002°06'0 0.0
2015-Jan-24 21:28N 57°09' W 002°06'0 0.0
2015-Jan-24 20:32N 57°09' W 002°06'0 0.0
2015-Jan-24 19:31N 57°09' W 002°06'0 0.0
2015-Jan-24 18:32N 57°09' W 002°06'0 0.0
2015-Jan-24 17:32N 57°09' W 002°06'0 0.0
2015-Jan-24 16:32N 57°09' W 002°06'0 0.0
2015-Jan-24 15:32N 57°09' W 002°06'0 0.0
2015-Jan-24 14:32N 57°09' W 002°06'0 0.0
2015-Jan-24 13:31N 57°09' W 002°06'0 0.0
2015-Jan-24 12:31N 57°09' W 002°06'0 0.0
2015-Jan-24 11:31N 57°09' W 002°06'0 0.0
2015-Jan-24 10:31N 57°09' W 002°06'0 0.0
2015-Jan-24 09:34N 57°09' W 002°06'0 0.0
2015-Jan-24 08:34N 57°09' W 002°06'0 0.0
2015-Jan-24 07:33N 57°09' W 002°06'13 3.1
2015-Jan-24 03:32N 57°18' W 001°49'6 5.7
2015-Jan-24 02:33N 57°22' W 001°42'7 7.2
2015-Jan-24 01:33N 57°28' W 001°35'8 8.1
2015-Jan-24 00:33N 57°35' W 001°28'8 7.8
2015-Jan-23 23:34N 57°43' W 001°28'10 8.2
2015-Jan-23 22:20N 57°53' W 001°33'  

Dump ship's entire track history